sensor_id;sensor_type;location;lat;lon;timestamp;temperature;humidity
11597;DHT22;5854;48.072;16.286;2023-01-25T00:00:02;3.10;87.40
11597;DHT22;5854;48.072;16.286;2023-01-25T00:02:31;3.10;86.10
11597;DHT22;5854;48.072;16.286;2023-01-25T00:04:58;3.00;85.30
11597;DHT22;5854;48.072;16.286;2023-01-25T00:07:25;3.00;85.90
11597;DHT22;5854;48.072;16.286;2023-01-25T00:09:52;3.10;87.40
11597;DHT22;5854;48.072;16.286;2023-01-25T00:12:20;3.10;87.40
11597;DHT22;5854;48.072;16.286;2023-01-25T00:14:47;3.10;87.10
11597;DHT22;5854;48.072;16.286;2023-01-25T00:17:14;3.20;87.00
11597;DHT22;5854;48.072;16.286;2023-01-25T00:19:41;3.10;86.10
11597;DHT22;5854;48.072;16.286;2023-01-25T00:22:08;3.10;87.00
11597;DHT22;5854;48.072;16.286;2023-01-25T00:24:35;3.10;85.30
11597;DHT22;5854;48.072;16.286;2023-01-25T00:27:02;3.00;84.80
11597;DHT22;5854;48.072;16.286;2023-01-25T00:29:30;3.00;85.80
11597;DHT22;5854;48.072;16.286;2023-01-25T00:32:06;3.00;87.30
11597;DHT22;5854;48.072;16.286;2023-01-25T00:34:50;3.00;89.10
11597;DHT22;5854;48.072;16.286;2023-01-25T00:37:22;3.00;87.30
11597;DHT22;5854;48.072;16.286;2023-01-25T00:39:50;3.00;85.20
11597;DHT22;5854;48.072;16.286;2023-01-25T00:42:18;3.00;86.10
11597;DHT22;5854;48.072;16.286;2023-01-25T00:44:47;3.00;87.90
11597;DHT22;5854;48.072;16.286;2023-01-25T00:47:15;3.00;87.50
11597;DHT22;5854;48.072;16.286;2023-01-25T00:49:43;3.00;86.60
11597;DHT22;5854;48.072;16.286;2023-01-25T00:52:11;2.90;85.90
11597;DHT22;5854;48.072;16.286;2023-01-25T00:54:38;3.00;86.90
11597;DHT22;5854;48.072;16.286;2023-01-25T00:57:05;3.00;90.40
11597;DHT22;5854;48.072;16.286;2023-01-25T00:59:33;3.10;89.50
11597;DHT22;5854;48.072;16.286;2023-01-25T01:02:02;3.00;86.70
11597;DHT22;5854;48.072;16.286;2023-01-25T01:04:29;3.00;88.50
11597;DHT22;5854;48.072;16.286;2023-01-25T01:06:57;2.90;85.80
11597;DHT22;5854;48.072;16.286;2023-01-25T01:09:24;2.90;87.30
11597;DHT22;5854;48.072;16.286;2023-01-25T01:11:51;3.00;90.30
11597;DHT22;5854;48.072;16.286;2023-01-25T01:14:19;3.00;88.50
11597;DHT22;5854;48.072;16.286;2023-01-25T01:16:47;3.10;88.00
11597;DHT22;5854;48.072;16.286;2023-01-25T01:19:16;3.00;86.40
11597;DHT22;5854;48.072;16.286;2023-01-25T01:21:43;3.00;87.30
11597;DHT22;5854;48.072;16.286;2023-01-25T01:24:10;2.90;86.80
11597;DHT22;5854;48.072;16.286;2023-01-25T01:26:37;3.00;87.90
11597;DHT22;5854;48.072;16.286;2023-01-25T01:29:05;2.90;86.80
11597;DHT22;5854;48.072;16.286;2023-01-25T01:31:32;3.00;88.00
11597;DHT22;5854;48.072;16.286;2023-01-25T01:33:59;3.00;88.30
11597;DHT22;5854;48.072;16.286;2023-01-25T01:36:29;3.00;85.80
11597;DHT22;5854;48.072;16.286;2023-01-25T01:38:57;3.00;87.30
11597;DHT22;5854;48.072;16.286;2023-01-25T01:41:25;3.00;87.10
11597;DHT22;5854;48.072;16.286;2023-01-25T01:43:52;3.00;87.80
11597;DHT22;5854;48.072;16.286;2023-01-25T01:46:26;3.00;86.70
11597;DHT22;5854;48.072;16.286;2023-01-25T01:48:57;3.00;88.40
11597;DHT22;5854;48.072;16.286;2023-01-25T01:51:38;3.00;86.90
11597;DHT22;5854;48.072;16.286;2023-01-25T01:54:11;2.90;86.90
11597;DHT22;5854;48.072;16.286;2023-01-25T01:56:45;3.00;88.40
11597;DHT22;5854;48.072;16.286;2023-01-25T01:59:23;3.00;87.10
11597;DHT22;5854;48.072;16.286;2023-01-25T02:01:52;3.00;87.70
11597;DHT22;5854;48.072;16.286;2023-01-25T02:04:21;2.90;86.40
11597;DHT22;5854;48.072;16.286;2023-01-25T02:06:53;2.90;87.90
11597;DHT22;5854;48.072;16.286;2023-01-25T02:09:25;2.90;87.00
11597;DHT22;5854;48.072;16.286;2023-01-25T02:11:56;2.90;88.50
11597;DHT22;5854;48.072;16.286;2023-01-25T02:14:25;2.90;87.50
11597;DHT22;5854;48.072;16.286;2023-01-25T02:16:53;3.00;89.00
11597;DHT22;5854;48.072;16.286;2023-01-25T02:19:39;2.90;87.80
11597;DHT22;5854;48.072;16.286;2023-01-25T02:22:13;3.00;89.60
11597;DHT22;5854;48.072;16.286;2023-01-25T02:24:46;3.00;88.10
11597;DHT22;5854;48.072;16.286;2023-01-25T02:27:17;3.00;89.20
11597;DHT22;5854;48.072;16.286;2023-01-25T02:29:44;3.00;88.90
11597;DHT22;5854;48.072;16.286;2023-01-25T02:32:12;3.00;89.10
11597;DHT22;5854;48.072;16.286;2023-01-25T02:34:39;3.00;88.40
11597;DHT22;5854;48.072;16.286;2023-01-25T02:37:08;3.00;88.10
11597;DHT22;5854;48.072;16.286;2023-01-25T02:39:38;2.90;87.30
11597;DHT22;5854;48.072;16.286;2023-01-25T02:42:05;2.90;86.70
11597;DHT22;5854;48.072;16.286;2023-01-25T02:44:34;2.90;87.60
11597;DHT22;5854;48.072;16.286;2023-01-25T02:47:01;3.00;89.20
11597;DHT22;5854;48.072;16.286;2023-01-25T02:49:28;2.90;88.90
11597;DHT22;5854;48.072;16.286;2023-01-25T02:51:55;2.90;88.30
11597;DHT22;5854;48.072;16.286;2023-01-25T02:54:23;2.90;88.30
11597;DHT22;5854;48.072;16.286;2023-01-25T02:56:51;2.90;89.20
11597;DHT22;5854;48.072;16.286;2023-01-25T02:59:18;2.90;88.10
11597;DHT22;5854;48.072;16.286;2023-01-25T03:01:47;2.90;86.90
11597;DHT22;5854;48.072;16.286;2023-01-25T03:04:14;2.80;87.50
11597;DHT22;5854;48.072;16.286;2023-01-25T03:06:41;2.80;88.40
11597;DHT22;5854;48.072;16.286;2023-01-25T03:09:09;2.90;89.80
11597;DHT22;5854;48.072;16.286;2023-01-25T03:11:37;2.90;89.20
11597;DHT22;5854;48.072;16.286;2023-01-25T03:14:04;2.90;89.00
11597;DHT22;5854;48.072;16.286;2023-01-25T03:16:31;3.00;88.60
11597;DHT22;5854;48.072;16.286;2023-01-25T03:18:59;2.90;87.50
11597;DHT22;5854;48.072;16.286;2023-01-25T03:21:26;3.00;89.30
11597;DHT22;5854;48.072;16.286;2023-01-25T03:23:55;2.90;87.90
11597;DHT22;5854;48.072;16.286;2023-01-25T03:26:24;2.90;87.30
11597;DHT22;5854;48.072;16.286;2023-01-25T03:28:53;2.80;87.90
11597;DHT22;5854;48.072;16.286;2023-01-25T03:31:20;2.80;87.90
11597;DHT22;5854;48.072;16.286;2023-01-25T03:33:47;2.80;88.10
11597;DHT22;5854;48.072;16.286;2023-01-25T03:36:15;2.90;89.00
11597;DHT22;5854;48.072;16.286;2023-01-25T03:38:42;2.90;89.60
11597;DHT22;5854;48.072;16.286;2023-01-25T03:41:09;2.90;89.80
11597;DHT22;5854;48.072;16.286;2023-01-25T03:43:38;2.80;87.80
11597;DHT22;5854;48.072;16.286;2023-01-25T03:46:05;2.80;88.40
11597;DHT22;5854;48.072;16.286;2023-01-25T03:48:32;2.80;88.40
11597;DHT22;5854;48.072;16.286;2023-01-25T03:50:59;2.90;89.40
11597;DHT22;5854;48.072;16.286;2023-01-25T03:53:29;2.80;88.30
11597;DHT22;5854;48.072;16.286;2023-01-25T03:55:58;2.80;88.00
11597;DHT22;5854;48.072;16.286;2023-01-25T03:58:27;2.80;87.80
11597;DHT22;5854;48.072;16.286;2023-01-25T04:00:55;2.90;89.30
11597;DHT22;5854;48.072;16.286;2023-01-25T04:03:24;2.90;88.90
11597;DHT22;5854;48.072;16.286;2023-01-25T04:05:51;2.90;89.00
11597;DHT22;5854;48.072;16.286;2023-01-25T04:08:18;2.80;87.60
11597;DHT22;5854;48.072;16.286;2023-01-25T04:10:50;2.90;88.80
11597;DHT22;5854;48.072;16.286;2023-01-25T04:13:19;2.80;88.00
11597;DHT22;5854;48.072;16.286;2023-01-25T04:15:46;2.80;89.10
11597;DHT22;5854;48.072;16.286;2023-01-25T04:18:14;2.90;90.20
11597;DHT22;5854;48.072;16.286;2023-01-25T04:20:41;2.80;88.00
11597;DHT22;5854;48.072;16.286;2023-01-25T04:23:09;2.90;89.10
11597;DHT22;5854;48.072;16.286;2023-01-25T04:25:37;2.90;89.30
11597;DHT22;5854;48.072;16.286;2023-01-25T04:28:06;2.90;89.40
11597;DHT22;5854;48.072;16.286;2023-01-25T04:30:33;2.90;88.50
11597;DHT22;5854;48.072;16.286;2023-01-25T04:33:03;2.90;88.40
11597;DHT22;5854;48.072;16.286;2023-01-25T04:35:31;2.90;88.30
11597;DHT22;5854;48.072;16.286;2023-01-25T04:37:59;2.80;88.00
11597;DHT22;5854;48.072;16.286;2023-01-25T04:40:26;2.80;89.20
11597;DHT22;5854;48.072;16.286;2023-01-25T04:42:53;2.80;88.90
11597;DHT22;5854;48.072;16.286;2023-01-25T04:45:22;2.80;88.60
11597;DHT22;5854;48.072;16.286;2023-01-25T04:47:54;2.90;89.20
11597;DHT22;5854;48.072;16.286;2023-01-25T04:50:22;2.80;88.40
11597;DHT22;5854;48.072;16.286;2023-01-25T04:52:49;2.80;87.60
11597;DHT22;5854;48.072;16.286;2023-01-25T04:55:16;2.90;89.20
11597;DHT22;5854;48.072;16.286;2023-01-25T04:57:44;2.80;88.40
11597;DHT22;5854;48.072;16.286;2023-01-25T05:00:11;2.80;88.00
11597;DHT22;5854;48.072;16.286;2023-01-25T05:02:41;2.80;89.00
11597;DHT22;5854;48.072;16.286;2023-01-25T05:05:08;2.80;89.60
11597;DHT22;5854;48.072;16.286;2023-01-25T05:07:36;2.80;89.30
11597;DHT22;5854;48.072;16.286;2023-01-25T05:10:04;2.80;88.60
11597;DHT22;5854;48.072;16.286;2023-01-25T05:12:32;2.80;88.50
11597;DHT22;5854;48.072;16.286;2023-01-25T05:14:59;2.90;89.20
11597;DHT22;5854;48.072;16.286;2023-01-25T05:17:26;2.90;88.20
11597;DHT22;5854;48.072;16.286;2023-01-25T05:19:54;2.90;89.20
11597;DHT22;5854;48.072;16.286;2023-01-25T05:22:22;2.80;87.80
11597;DHT22;5854;48.072;16.286;2023-01-25T05:24:49;2.80;88.80
11597;DHT22;5854;48.072;16.286;2023-01-25T05:27:18;2.90;89.20
11597;DHT22;5854;48.072;16.286;2023-01-25T05:29:46;2.80;88.00
11597;DHT22;5854;48.072;16.286;2023-01-25T05:32:16;2.80;89.40
11597;DHT22;5854;48.072;16.286;2023-01-25T05:34:45;2.80;88.20
11597;DHT22;5854;48.072;16.286;2023-01-25T05:37:15;2.80;87.50
11597;DHT22;5854;48.072;16.286;2023-01-25T05:39:43;2.90;89.50
11597;DHT22;5854;48.072;16.286;2023-01-25T05:42:11;2.80;88.20
11597;DHT22;5854;48.072;16.286;2023-01-25T05:44:39;2.90;89.30
11597;DHT22;5854;48.072;16.286;2023-01-25T05:47:06;2.90;88.90
11597;DHT22;5854;48.072;16.286;2023-01-25T05:49:35;2.90;87.90
11597;DHT22;5854;48.072;16.286;2023-01-25T05:52:02;2.80;88.40
11597;DHT22;5854;48.072;16.286;2023-01-25T05:54:31;2.90;88.30
11597;DHT22;5854;48.072;16.286;2023-01-25T05:56:58;2.80;87.50
11597;DHT22;5854;48.072;16.286;2023-01-25T05:59:25;2.80;87.70
11597;DHT22;5854;48.072;16.286;2023-01-25T06:01:52;2.70;88.20
11597;DHT22;5854;48.072;16.286;2023-01-25T06:04:19;2.80;89.60
11597;DHT22;5854;48.072;16.286;2023-01-25T06:06:46;2.70;87.70
11597;DHT22;5854;48.072;16.286;2023-01-25T06:09:14;2.80;89.30
11597;DHT22;5854;48.072;16.286;2023-01-25T06:11:43;2.70;87.90
11597;DHT22;5854;48.072;16.286;2023-01-25T06:14:11;3.10;93.00
11597;DHT22;5854;48.072;16.286;2023-01-25T06:16:38;2.90;89.30
11597;DHT22;5854;48.072;16.286;2023-01-25T06:19:06;2.90;88.80
11597;DHT22;5854;48.072;16.286;2023-01-25T06:21:34;2.80;88.10
11597;DHT22;5854;48.072;16.286;2023-01-25T06:24:01;2.80;88.80
11597;DHT22;5854;48.072;16.286;2023-01-25T06:26:28;2.80;90.30
11597;DHT22;5854;48.072;16.286;2023-01-25T06:28:57;2.80;89.30
11597;DHT22;5854;48.072;16.286;2023-01-25T06:31:24;3.00;92.20
11597;DHT22;5854;48.072;16.286;2023-01-25T06:33:51;2.90;88.80
11597;DHT22;5854;48.072;16.286;2023-01-25T06:36:20;2.90;88.70
11597;DHT22;5854;48.072;16.286;2023-01-25T06:38:48;2.90;91.40
11597;DHT22;5854;48.072;16.286;2023-01-25T06:41:16;3.10;91.10
11597;DHT22;5854;48.072;16.286;2023-01-25T06:43:44;3.00;88.40
11597;DHT22;5854;48.072;16.286;2023-01-25T06:46:56;2.90;87.40
11597;DHT22;5854;48.072;16.286;2023-01-25T06:49:32;2.80;87.30
11597;DHT22;5854;48.072;16.286;2023-01-25T06:51:59;2.80;87.70
11597;DHT22;5854;48.072;16.286;2023-01-25T06:54:26;2.70;87.70
11597;DHT22;5854;48.072;16.286;2023-01-25T06:56:54;2.70;88.80
11597;DHT22;5854;48.072;16.286;2023-01-25T06:59:22;2.70;89.80
11597;DHT22;5854;48.072;16.286;2023-01-25T07:01:50;2.80;89.50
11597;DHT22;5854;48.072;16.286;2023-01-25T07:04:17;2.70;89.20
11597;DHT22;5854;48.072;16.286;2023-01-25T07:06:44;2.70;88.90
11597;DHT22;5854;48.072;16.286;2023-01-25T07:09:13;2.70;89.30
11597;DHT22;5854;48.072;16.286;2023-01-25T07:11:40;2.70;89.20
11597;DHT22;5854;48.072;16.286;2023-01-25T07:14:07;2.70;89.30
11597;DHT22;5854;48.072;16.286;2023-01-25T07:16:34;2.70;90.00
11597;DHT22;5854;48.072;16.286;2023-01-25T07:19:05;2.70;89.50
11597;DHT22;5854;48.072;16.286;2023-01-25T07:21:33;2.70;89.50
11597;DHT22;5854;48.072;16.286;2023-01-25T07:24:00;2.80;89.30
11597;DHT22;5854;48.072;16.286;2023-01-25T07:26:28;2.80;88.80
11597;DHT22;5854;48.072;16.286;2023-01-25T07:28:57;2.70;89.20
11597;DHT22;5854;48.072;16.286;2023-01-25T07:31:25;2.80;89.30
11597;DHT22;5854;48.072;16.286;2023-01-25T07:33:53;2.70;88.00
11597;DHT22;5854;48.072;16.286;2023-01-25T07:36:23;2.70;88.10
11597;DHT22;5854;48.072;16.286;2023-01-25T07:38:52;2.70;89.80
11597;DHT22;5854;48.072;16.286;2023-01-25T07:41:20;2.80;89.20
11597;DHT22;5854;48.072;16.286;2023-01-25T07:43:47;2.80;89.30
11597;DHT22;5854;48.072;16.286;2023-01-25T07:46:14;2.90;88.90
11597;DHT22;5854;48.072;16.286;2023-01-25T07:48:45;2.80;89.00
11597;DHT22;5854;48.072;16.286;2023-01-25T07:51:14;2.90;89.50
11597;DHT22;5854;48.072;16.286;2023-01-25T07:53:50;3.00;88.80
11597;DHT22;5854;48.072;16.286;2023-01-25T07:56:19;3.00;88.30
11597;DHT22;5854;48.072;16.286;2023-01-25T07:58:47;2.90;87.20
11597;DHT22;5854;48.072;16.286;2023-01-25T08:01:16;2.90;87.20
11597;DHT22;5854;48.072;16.286;2023-01-25T08:03:44;3.00;88.60
11597;DHT22;5854;48.072;16.286;2023-01-25T08:06:12;2.90;87.10
11597;DHT22;5854;48.072;16.286;2023-01-25T08:08:41;2.90;88.40
11597;DHT22;5854;48.072;16.286;2023-01-25T08:11:12;2.90;87.70
11597;DHT22;5854;48.072;16.286;2023-01-25T08:13:41;2.90;87.20
11597;DHT22;5854;48.072;16.286;2023-01-25T08:16:10;3.00;87.40
11597;DHT22;5854;48.072;16.286;2023-01-25T08:18:37;3.00;88.10
11597;DHT22;5854;48.072;16.286;2023-01-25T08:21:05;3.00;86.60
11597;DHT22;5854;48.072;16.286;2023-01-25T08:23:32;3.00;86.40
11597;DHT22;5854;48.072;16.286;2023-01-25T08:26:01;3.00;87.00
11597;DHT22;5854;48.072;16.286;2023-01-25T08:28:29;3.00;87.80
11597;DHT22;5854;48.072;16.286;2023-01-25T08:31:04;3.10;87.60
11597;DHT22;5854;48.072;16.286;2023-01-25T08:33:32;3.10;87.70
11597;DHT22;5854;48.072;16.286;2023-01-25T08:35:59;3.10;87.10
11597;DHT22;5854;48.072;16.286;2023-01-25T08:38:26;3.20;87.60
11597;DHT22;5854;48.072;16.286;2023-01-25T08:40:53;3.10;85.60
11597;DHT22;5854;48.072;16.286;2023-01-25T08:43:21;3.20;87.10
11597;DHT22;5854;48.072;16.286;2023-01-25T08:45:56;3.20;86.30
11597;DHT22;5854;48.072;16.286;2023-01-25T08:48:23;3.30;86.60
11597;DHT22;5854;48.072;16.286;2023-01-25T08:50:50;3.20;86.10
11597;DHT22;5854;48.072;16.286;2023-01-25T08:53:17;3.20;85.20
11597;DHT22;5854;48.072;16.286;2023-01-25T08:55:45;3.10;84.40
11597;DHT22;5854;48.072;16.286;2023-01-25T08:58:12;3.20;86.40
11597;DHT22;5854;48.072;16.286;2023-01-25T09:00:41;3.20;86.90
11597;DHT22;5854;48.072;16.286;2023-01-25T09:03:10;3.20;86.00
11597;DHT22;5854;48.072;16.286;2023-01-25T09:05:38;3.20;86.50
11597;DHT22;5854;48.072;16.286;2023-01-25T09:08:06;3.20;85.90
11597;DHT22;5854;48.072;16.286;2023-01-25T09:10:34;3.30;85.70
11597;DHT22;5854;48.072;16.286;2023-01-25T09:13:02;3.20;84.60
11597;DHT22;5854;48.072;16.286;2023-01-25T09:15:29;3.30;86.30
11597;DHT22;5854;48.072;16.286;2023-01-25T09:17:56;3.30;85.10
11597;DHT22;5854;48.072;16.286;2023-01-25T09:20:24;3.30;85.10
11597;DHT22;5854;48.072;16.286;2023-01-25T09:22:51;3.20;84.10
11597;DHT22;5854;48.072;16.286;2023-01-25T09:25:20;3.30;85.00
11597;DHT22;5854;48.072;16.286;2023-01-25T09:27:48;3.20;84.00
11597;DHT22;5854;48.072;16.286;2023-01-25T09:30:15;3.20;84.20
11597;DHT22;5854;48.072;16.286;2023-01-25T09:32:43;3.20;85.00
11597;DHT22;5854;48.072;16.286;2023-01-25T09:35:10;3.30;85.00
11597;DHT22;5854;48.072;16.286;2023-01-25T09:37:38;3.30;84.80
11597;DHT22;5854;48.072;16.286;2023-01-25T09:40:11;3.30;84.90
11597;DHT22;5854;48.072;16.286;2023-01-25T09:42:56;3.30;84.10
11597;DHT22;5854;48.072;16.286;2023-01-25T09:45:32;3.20;83.20
11597;DHT22;5854;48.072;16.286;2023-01-25T09:48:08;3.20;83.00
11597;DHT22;5854;48.072;16.286;2023-01-25T09:50:52;3.20;84.90
11597;DHT22;5854;48.072;16.286;2023-01-25T09:53:31;3.20;84.40
11597;DHT22;5854;48.072;16.286;2023-01-25T09:56:03;3.30;85.30
11597;DHT22;5854;48.072;16.286;2023-01-25T09:58:38;3.30;84.10
11597;DHT22;5854;48.072;16.286;2023-01-25T10:01:24;3.30;83.80
11597;DHT22;5854;48.072;16.286;2023-01-25T10:03:56;3.20;84.80
11597;DHT22;5854;48.072;16.286;2023-01-25T10:06:34;3.20;85.40
11597;DHT22;5854;48.072;16.286;2023-01-25T10:09:14;3.30;85.40
11597;DHT22;5854;48.072;16.286;2023-01-25T10:11:45;3.30;86.10
11597;DHT22;5854;48.072;16.286;2023-01-25T10:14:14;3.20;84.90
11597;DHT22;5854;48.072;16.286;2023-01-25T10:16:54;3.30;85.50
11597;DHT22;5854;48.072;16.286;2023-01-25T10:19:33;3.30;84.70
11597;DHT22;5854;48.072;16.286;2023-01-25T10:22:12;3.30;84.70
11597;DHT22;5854;48.072;16.286;2023-01-25T10:25:09;3.30;84.30
11597;DHT22;5854;48.072;16.286;2023-01-25T10:27:52;3.30;84.90
11597;DHT22;5854;48.072;16.286;2023-01-25T10:30:30;3.40;85.40
11597;DHT22;5854;48.072;16.286;2023-01-25T10:33:10;3.40;85.10
11597;DHT22;5854;48.072;16.286;2023-01-25T10:35:43;3.30;83.90
11597;DHT22;5854;48.072;16.286;2023-01-25T10:38:15;3.40;85.40
11597;DHT22;5854;48.072;16.286;2023-01-25T10:40:50;3.40;84.90
11597;DHT22;5854;48.072;16.286;2023-01-25T10:43:21;3.30;84.80
11597;DHT22;5854;48.072;16.286;2023-01-25T10:45:49;3.30;84.60
11597;DHT22;5854;48.072;16.286;2023-01-25T10:48:19;3.30;85.00
11597;DHT22;5854;48.072;16.286;2023-01-25T10:50:50;3.40;85.00
11597;DHT22;5854;48.072;16.286;2023-01-25T10:53:27;3.40;84.40
11597;DHT22;5854;48.072;16.286;2023-01-25T10:59:06;3.40;83.50
11597;DHT22;5854;48.072;16.286;2023-01-25T11:01:39;3.30;82.90
11597;DHT22;5854;48.072;16.286;2023-01-25T11:04:31;3.30;84.60
11597;DHT22;5854;48.072;16.286;2023-01-25T11:07:01;3.40;84.00
11597;DHT22;5854;48.072;16.286;2023-01-25T11:09:37;3.40;84.80
11597;DHT22;5854;48.072;16.286;2023-01-25T11:12:16;3.40;84.60
11597;DHT22;5854;48.072;16.286;2023-01-25T11:14:46;3.40;84.10
11597;DHT22;5854;48.072;16.286;2023-01-25T11:17:26;3.40;84.30
11597;DHT22;5854;48.072;16.286;2023-01-25T11:20:16;3.40;84.00
11597;DHT22;5854;48.072;16.286;2023-01-25T11:22:51;3.30;83.80
11597;DHT22;5854;48.072;16.286;2023-01-25T11:25:28;3.40;85.00
11597;DHT22;5854;48.072;16.286;2023-01-25T11:28:16;3.40;84.70
11597;DHT22;5854;48.072;16.286;2023-01-25T11:30:46;3.40;84.50
11597;DHT22;5854;48.072;16.286;2023-01-25T11:33:16;3.40;83.70
11597;DHT22;5854;48.072;16.286;2023-01-25T11:35:58;3.40;83.20
11597;DHT22;5854;48.072;16.286;2023-01-25T11:38:32;3.40;83.20
11597;DHT22;5854;48.072;16.286;2023-01-25T11:41:06;3.50;84.50
11597;DHT22;5854;48.072;16.286;2023-01-25T11:43:52;3.50;83.10
11597;DHT22;5854;48.072;16.286;2023-01-25T11:46:35;3.60;83.90
11597;DHT22;5854;48.072;16.286;2023-01-25T11:49:30;3.50;82.50
11597;DHT22;5854;48.072;16.286;2023-01-25T11:52:12;3.50;83.60
11597;DHT22;5854;48.072;16.286;2023-01-25T11:54:51;3.50;83.40
11597;DHT22;5854;48.072;16.286;2023-01-25T11:57:37;3.40;82.50
11597;DHT22;5854;48.072;16.286;2023-01-25T12:00:24;3.50;83.60
11597;DHT22;5854;48.072;16.286;2023-01-25T12:03:20;3.40;82.40
11597;DHT22;5854;48.072;16.286;2023-01-25T12:06:04;3.40;83.00
11597;DHT22;5854;48.072;16.286;2023-01-25T12:08:45;3.40;83.10
11597;DHT22;5854;48.072;16.286;2023-01-25T12:11:33;3.40;83.10
11597;DHT22;5854;48.072;16.286;2023-01-25T12:14:09;3.50;84.00
11597;DHT22;5854;48.072;16.286;2023-01-25T12:17:02;3.50;82.20
11597;DHT22;5854;48.072;16.286;2023-01-25T12:19:50;3.50;82.30
11597;DHT22;5854;48.072;16.286;2023-01-25T12:22:44;3.50;81.20
11597;DHT22;5854;48.072;16.286;2023-01-25T12:25:21;3.40;81.90
11597;DHT22;5854;48.072;16.286;2023-01-25T12:28:13;3.40;83.50
11597;DHT22;5854;48.072;16.286;2023-01-25T12:30:49;3.50;84.00
11597;DHT22;5854;48.072;16.286;2023-01-25T12:33:24;3.50;84.20
11597;DHT22;5854;48.072;16.286;2023-01-25T12:35:58;3.40;83.60
11597;DHT22;5854;48.072;16.286;2023-01-25T12:38:32;3.40;83.70
11597;DHT22;5854;48.072;16.286;2023-01-25T12:41:07;3.40;84.30
11597;DHT22;5854;48.072;16.286;2023-01-25T12:43:47;3.40;83.70
11597;DHT22;5854;48.072;16.286;2023-01-25T12:46:23;3.40;82.40
11597;DHT22;5854;48.072;16.286;2023-01-25T12:48:58;3.50;83.80
11597;DHT22;5854;48.072;16.286;2023-01-25T12:51:37;3.60;88.80
11597;DHT22;5854;48.072;16.286;2023-01-25T12:54:10;3.90;88.00
11597;DHT22;5854;48.072;16.286;2023-01-25T12:56:48;3.80;79.50
11597;DHT22;5854;48.072;16.286;2023-01-25T12:59:25;3.60;78.30
11597;DHT22;5854;48.072;16.286;2023-01-25T13:02:00;3.60;80.90
11597;DHT22;5854;48.072;16.286;2023-01-25T13:04:48;3.60;79.10
11597;DHT22;5854;48.072;16.286;2023-01-25T13:07:25;3.40;80.80
11597;DHT22;5854;48.072;16.286;2023-01-25T13:09:58;3.40;81.50
11597;DHT22;5854;48.072;16.286;2023-01-25T13:12:28;3.40;81.30
11597;DHT22;5854;48.072;16.286;2023-01-25T13:14:55;3.40;81.30
11597;DHT22;5854;48.072;16.286;2023-01-25T13:17:28;3.40;82.30
11597;DHT22;5854;48.072;16.286;2023-01-25T13:19:58;3.40;80.10
11597;DHT22;5854;48.072;16.286;2023-01-25T13:22:54;3.40;79.90
11597;DHT22;5854;48.072;16.286;2023-01-25T13:25:24;3.40;80.60
11597;DHT22;5854;48.072;16.286;2023-01-25T13:27:52;3.40;81.40
11597;DHT22;5854;48.072;16.286;2023-01-25T13:31:04;3.40;81.30
11597;DHT22;5854;48.072;16.286;2023-01-25T13:33:32;3.50;82.10
11597;DHT22;5854;48.072;16.286;2023-01-25T13:39:41;3.40;81.00
11597;DHT22;5854;48.072;16.286;2023-01-25T13:42:30;3.40;81.80
11597;DHT22;5854;48.072;16.286;2023-01-25T13:45:00;3.40;82.00
11597;DHT22;5854;48.072;16.286;2023-01-25T13:47:31;3.30;80.90
11597;DHT22;5854;48.072;16.286;2023-01-25T13:50:08;3.30;81.10
11597;DHT22;5854;48.072;16.286;2023-01-25T13:52:56;3.30;81.00
11597;DHT22;5854;48.072;16.286;2023-01-25T13:55:24;3.30;81.40
11597;DHT22;5854;48.072;16.286;2023-01-25T13:57:51;3.30;81.10
11597;DHT22;5854;48.072;16.286;2023-01-25T14:00:20;3.30;82.30
11597;DHT22;5854;48.072;16.286;2023-01-25T14:02:53;3.40;83.40
11597;DHT22;5854;48.072;16.286;2023-01-25T14:05:23;3.40;83.30
11597;DHT22;5854;48.072;16.286;2023-01-25T14:07:52;3.30;82.80
11597;DHT22;5854;48.072;16.286;2023-01-25T14:10:24;3.40;83.90
11597;DHT22;5854;48.072;16.286;2023-01-25T14:12:53;3.40;83.10
11597;DHT22;5854;48.072;16.286;2023-01-25T14:15:26;3.40;82.10
11597;DHT22;5854;48.072;16.286;2023-01-25T14:18:13;3.40;80.10
11597;DHT22;5854;48.072;16.286;2023-01-25T14:20:43;3.40;81.00
11597;DHT22;5854;48.072;16.286;2023-01-25T14:23:21;3.30;82.00
11597;DHT22;5854;48.072;16.286;2023-01-25T14:25:51;3.20;81.20
11597;DHT22;5854;48.072;16.286;2023-01-25T14:28:19;3.20;82.00
11597;DHT22;5854;48.072;16.286;2023-01-25T14:30:50;3.20;81.90
11597;DHT22;5854;48.072;16.286;2023-01-25T14:33:21;3.20;81.30
11597;DHT22;5854;48.072;16.286;2023-01-25T14:35:49;3.10;83.60
11597;DHT22;5854;48.072;16.286;2023-01-25T14:38:23;3.10;82.90
11597;DHT22;5854;48.072;16.286;2023-01-25T14:40:55;3.10;83.80
11597;DHT22;5854;48.072;16.286;2023-01-25T14:43:25;3.20;84.60
11597;DHT22;5854;48.072;16.286;2023-01-25T14:45:52;3.20;86.40
11597;DHT22;5854;48.072;16.286;2023-01-25T14:48:33;3.30;85.10
11597;DHT22;5854;48.072;16.286;2023-01-25T14:51:03;3.20;85.10
11597;DHT22;5854;48.072;16.286;2023-01-25T14:53:32;3.20;84.10
11597;DHT22;5854;48.072;16.286;2023-01-25T14:56:00;3.20;84.40
11597;DHT22;5854;48.072;16.286;2023-01-25T14:58:28;3.20;85.00
11597;DHT22;5854;48.072;16.286;2023-01-25T15:00:58;3.00;81.50
11597;DHT22;5854;48.072;16.286;2023-01-25T15:03:28;3.50;92.50
11597;DHT22;5854;48.072;16.286;2023-01-25T15:05:57;3.60;88.00
11597;DHT22;5854;48.072;16.286;2023-01-25T15:08:28;3.50;85.20
11597;DHT22;5854;48.072;16.286;2023-01-25T15:10:57;3.40;85.50
11597;DHT22;5854;48.072;16.286;2023-01-25T15:13:46;3.30;85.70
11597;DHT22;5854;48.072;16.286;2023-01-25T15:16:13;3.30;85.40
11597;DHT22;5854;48.072;16.286;2023-01-25T15:18:43;3.30;86.10
11597;DHT22;5854;48.072;16.286;2023-01-25T15:21:13;3.20;85.20
11597;DHT22;5854;48.072;16.286;2023-01-25T15:23:42;3.10;86.70
11597;DHT22;5854;48.072;16.286;2023-01-25T15:26:18;3.10;86.60
11597;DHT22;5854;48.072;16.286;2023-01-25T15:28:47;3.10;86.30
11597;DHT22;5854;48.072;16.286;2023-01-25T15:31:16;2.90;86.60
11597;DHT22;5854;48.072;16.286;2023-01-25T15:33:44;3.30;91.30
11597;DHT22;5854;48.072;16.286;2023-01-25T15:36:12;3.40;88.20
11597;DHT22;5854;48.072;16.286;2023-01-25T15:38:40;3.20;86.50
11597;DHT22;5854;48.072;16.286;2023-01-25T15:41:07;3.60;89.40
11597;DHT22;5854;48.072;16.286;2023-01-25T15:43:37;3.30;85.60
11597;DHT22;5854;48.072;16.286;2023-01-25T15:46:05;3.20;85.60
11597;DHT22;5854;48.072;16.286;2023-01-25T15:48:34;3.20;87.50
11597;DHT22;5854;48.072;16.286;2023-01-25T15:51:03;3.20;86.10
11597;DHT22;5854;48.072;16.286;2023-01-25T15:53:30;3.10;86.10
11597;DHT22;5854;48.072;16.286;2023-01-25T15:55:59;2.90;84.60
11597;DHT22;5854;48.072;16.286;2023-01-25T15:58:30;3.00;87.20
11597;DHT22;5854;48.072;16.286;2023-01-25T16:01:00;3.00;88.40
11597;DHT22;5854;48.072;16.286;2023-01-25T16:03:28;3.00;89.20
11597;DHT22;5854;48.072;16.286;2023-01-25T16:05:58;2.90;87.80
11597;DHT22;5854;48.072;16.286;2023-01-25T16:08:27;3.00;89.70
11597;DHT22;5854;48.072;16.286;2023-01-25T16:10:54;3.00;88.60
11597;DHT22;5854;48.072;16.286;2023-01-25T16:13:21;2.80;87.50
11597;DHT22;5854;48.072;16.286;2023-01-25T16:15:52;2.90;88.50